Qara, Saudi Arabia
Current Conditions -  °F | °C
As of 9:00 PM on Friday 24 Oct 2014 (Local Time) from OESK Reporting Station
Clear Clear  
Wind Chill: 73°   Ceiling: Unl
Heat Index: 73°   Visibility: 6mi
Dew Point: 37°   Wind: 8mph
Humidity: 27%   Direction: 260°W
Pressure: 30.06"   Gusts: NA
Location:  29.88°N, 40.23°E
Report Text: OESK 241800Z 26007KT CAVOK 23/03 Q1018 NOSIG
Loading
Personal Weather Stations






























Interactive Weather Map
Tropical Storm Tracking
New forecast layout! Learn more

10-Day Weather Forecast

Advertisements
Track Severe Weather on mobile